Dubois, Wyoming
Current Conditions -  °F | °C
As of 11:15 PM on Sunday 25 Jan 2015 (Local Time) from KAJL Reporting Station
Clear Clear  
Wind Chill: 17°   Ceiling: Unl
Heat Index: 28°   Visibility: 10mi
Dew Point: 22°   Wind: 14mph
Humidity: 77%   Direction: 270°W
Pressure: 30.43"   Gusts: 23mph
Location:  43.53°N, 109.63°W
Report Text: KAJL 260615Z AUTO 27012G20KT 10SM CLR M02/M05 A3043 RMK AO2 T10201055
Loading
Personal Weather Stations






























Interactive Weather Map New forecast layout! Learn more

10-Day Weather Forecast

Advertisements
Track Severe Weather on mobile